Terminal Aerodrome Forecast
Issued by NWS Dallas/Fort Worth, TX

Home | Current Version | Previous Version | Text Only | Print | Product List | Glossary On
Versions: 1 2 3 4 5 6 7 8 9 10 11 12 13 14 15 16 17 18 19 20 21 22 23 24 25 26 27 28 29
000
FTUS44 KFWD 052338
TAFACT
TAF
KACT 052338Z 0600/0624 15015KT P6SM VCSH BKN050
     FM060300 15015KT P6SM -SHRA VCTS BKN040CB
     FM060600 16016KT P6SM BKN016
      TEMPO 0610/0614 -SHRA OVC008
     FM061800 17014KT P6SM VCSH BKN025=

USA.gov is the U.S. government's official web portal to all federal, state and local government web resources and services.